»·PEaware :: SNK93 KINW-KDRO

SNK93 :: KINW-KDRO

FLIGHT INFORMATION

Flight Status: Arrived
Operator: Unknown
More flights by this operator :: More flights under this callsign
Pilot: Anonymous 36068 (36068)
Aircraft: BEECH AIRCRAFT PREMIER
(PRM1)
More flights by this aircraft type
Origin: KINW Winslow-Lindbergh Regl
United States
Destination: KDRO Durango-La Plata Co
United States
More flights between these airports :: More routes between these airports
Route: INW DRO
File this flight plan on PilotEdge
Remarks:
Altitude:
(Current/Filed)
25,000ft
Speed:
(Current/Filed)
400kts
Departed: 10-Nov-21 12:17 PM
Arrived: 10-Nov-21 12:55 PM
Distance/Time
Traveled:
193nm/0:38
Distance/Time
To Go:
Arrived

Flight Plot

Page will automatically refresh every two minutes.

Flight plan parsing failed; only flown route is shown


Map Options




Map Legend


Flown Route
Filed Route
Departure Airport
Arrival Airport
Navaid (VOR, NDB)
Fix

Horizontal Profiles

Position Reports

Time Latitude Longitude Heading Altitude Ground
Speed
10-Nov-21 12:00 35.022459 -110.715922 0 4884ft 0kts
10-Nov-21 12:01 35.022459 -110.715922 0 4884ft 0kts
10-Nov-21 12:02 35.022459 -110.715922 0 4884ft 0kts
10-Nov-21 12:03 35.022459 -110.715922 0 4884ft 0kts
10-Nov-21 12:04 35.022459 -110.715922 0 4884ft 0kts
10-Nov-21 12:05 35.022459 -110.715922 0 4884ft 0kts
10-Nov-21 12:06 35.022497 -110.715908 31 4884ft 2kts
10-Nov-21 12:07 35.021359 -110.713429 119 4882ft 13kts
10-Nov-21 12:08 35.019304 -110.708978 120 4878ft 13kts
10-Nov-21 12:09 35.019052 -110.707852 60 4877ft 0kts
10-Nov-21 12:10 35.019052 -110.707852 60 4877ft 0kts
10-Nov-21 12:11 35.019052 -110.707852 60 4877ft 0kts
10-Nov-21 12:12 35.019052 -110.707852 60 4877ft 0kts
10-Nov-21 12:13 35.019052 -110.707852 60 4877ft 0kts
10-Nov-21 12:14 35.019052 -110.707852 60 4877ft 0kts
10-Nov-21 12:15 35.019916 -110.708143 300 4876ft 30kts
10-Nov-21 12:16 35.037916 -110.748041 299 6072ft 183kts
10-Nov-21 12:17 35.066168 -110.808900 317 8630ft 229kts
10-Nov-21 12:18 35.110101 -110.770674 74 11293ft 269kts
10-Nov-21 12:19 35.138918 -110.686987 43 13781ft 278kts
10-Nov-21 12:20 35.192217 -110.612623 43 15823ft 303kts
10-Nov-21 12:21 35.248878 -110.533184 43 17857ft 316kts
10-Nov-21 12:22 35.307201 -110.451233 42 19888ft 321kts
10-Nov-21 12:23 35.365769 -110.368743 41 21910ft 322kts
10-Nov-21 12:24 35.424021 -110.286440 41 23902ft 318kts
10-Nov-21 12:25 35.481875 -110.204738 41 25288ft 331kts
10-Nov-21 12:26 35.546741 -110.112845 42 25296ft 379kts
10-Nov-21 12:27 35.618455 -110.010717 43 25290ft 410kts
10-Nov-21 12:28 35.694678 -109.901897 43 25285ft 429kts
10-Nov-21 12:29 35.772152 -109.790895 43 25282ft 427kts
10-Nov-21 12:30 35.849496 -109.679799 43 25282ft 425kts
10-Nov-21 12:31 35.926123 -109.569360 43 25283ft 425kts
10-Nov-21 12:32 35.976225 -109.497643 49 25283ft 423kts
10-Nov-21 12:33 36.052050 -109.387099 49 25283ft 422kts
10-Nov-21 12:34 36.128162 -109.276457 49 25283ft 422kts
10-Nov-21 12:35 36.203679 -109.166318 49 25265ft 422kts
10-Nov-21 12:36 36.281443 -109.052528 49 24321ft 439kts
10-Nov-21 12:37 36.359349 -108.938143 49 24282ft 430kts
10-Nov-21 12:38 36.436667 -108.824234 49 23269ft 432kts
10-Nov-21 12:39 36.512204 -108.712574 49 21263ft 416kts
10-Nov-21 12:40 36.585396 -108.604027 49 19256ft 405kts
10-Nov-21 12:41 36.656631 -108.498042 49 17256ft 396kts
10-Nov-21 12:42 36.726511 -108.393746 49 15254ft 389kts
10-Nov-21 12:43 36.793538 -108.293401 50 13236ft 359kts
10-Nov-21 12:44 36.852956 -108.204190 50 11236ft 313kts
10-Nov-21 12:45 36.898458 -108.135715 50 11110ft 220kts
10-Nov-21 12:46 36.925266 -108.067342 68 10078ft 224kts
10-Nov-21 12:47 36.946009 -108.000476 68 9127ft 178kts
10-Nov-21 12:48 36.963154 -107.945114 68 9122ft 173kts
10-Nov-21 12:49 36.996445 -107.901476 37 8920ft 177kts
10-Nov-21 12:50 37.035725 -107.864042 37 8916ft 174kts
10-Nov-21 12:51 37.073243 -107.828351 37 8302ft 168kts
10-Nov-21 12:52 37.109219 -107.794100 37 7439ft 155kts
10-Nov-21 12:53 37.141791 -107.763315 36 6721ft 140kts
10-Nov-21 12:54 37.155651 -107.750628 307 6692ft 0kts
10-Nov-21 12:55 37.155651 -107.750628 307 6692ft 0kts
10-Nov-21 12:56 37.155705 -107.751553 277 6692ft 5kts
10-Nov-21 12:57 37.155931 -107.752066 307 6692ft 0kts

Navigation Log

Ident Type
Flight plan parsing failed, navigation log unavailable